createdAt,value
2017-07-31T00:00:02.194Z,74.20
2017-07-31T00:00:06.454Z,74.30
2017-07-31T00:00:10.790Z,74.20
2017-07-31T00:00:15.133Z,74.30
2017-07-31T00:00:19.399Z,74.40
2017-07-31T00:00:23.630Z,74.40
2017-07-31T00:00:27.878Z,74.50
2017-07-31T00:00:32.161Z,74.50
2017-07-31T00:00:36.464Z,74.60
2017-07-31T00:00:40.692Z,74.50
2017-07-31T00:00:45.713Z,74.50
2017-07-31T00:00:49.977Z,74.40
2017-07-31T00:00:54.329Z,74.50
2017-07-31T00:00:58.605Z,74.40
2017-07-31T00:01:02.928Z,74.50
2017-07-31T00:01:07.194Z,74.60
2017-07-31T00:01:11.467Z,74.60
2017-07-31T00:01:15.765Z,74.70
2017-07-31T00:01:20.019Z,74.60
2017-07-31T00:01:25.047Z,74.60
2017-07-31T00:01:29.317Z,74.60
2017-07-31T00:01:33.533Z,74.60
2017-07-31T00:01:37.778Z,74.70
2017-07-31T00:01:42.028Z,74.80
2017-07-31T00:01:46.341Z,74.70
2017-07-31T00:01:51.404Z,74.80
2017-07-31T00:01:55.683Z,74.80
2017-07-31T00:01:59.955Z,75.50
2017-07-31T00:02:04.957Z,74.90
2017-07-31T00:02:09.231Z,74.90
2017-07-31T00:02:13.474Z,74.90
2017-07-31T00:02:18.516Z,74.90
2017-07-31T00:02:22.768Z,75.00
2017-07-31T00:02:27.006Z,75.00
2017-07-31T00:02:31.268Z,75.00
2017-07-31T00:02:35.525Z,75.10
2017-07-31T00:02:39.773Z,75.00
2017-07-31T00:02:44.023Z,75.00
2017-07-31T00:02:48.281Z,75.00
2017-07-31T00:02:53.312Z,75.70
2017-07-31T00:02:58.317Z,75.00
2017-07-31T00:03:03.428Z,75.00
2017-07-31T00:03:07.676Z,75.00
2017-07-31T00:03:11.939Z,74.90
2017-07-31T00:03:16.195Z,74.90
2017-07-31T00:03:20.454Z,74.90
2017-07-31T00:03:24.747Z,74.90
2017-07-31T00:03:29.019Z,74.90
2017-07-31T00:03:33.296Z,75.00
2017-07-31T00:03:37.536Z,75.00
2017-07-31T00:03:41.821Z,75.10
2017-07-31T00:03:46.135Z,75.10
2017-07-31T00:03:50.383Z,75.10
2017-07-31T00:03:54.644Z,75.20
2017-07-31T00:03:59.682Z,75.10
2017-07-31T00:04:03.933Z,75.30
2017-07-31T00:04:08.189Z,75.30
2017-07-31T00:04:13.356Z,75.20
2017-07-31T00:04:17.611Z,75.20
2017-07-31T00:04:21.855Z,75.30
2017-07-31T00:04:26.176Z,75.20
2017-07-31T00:04:30.420Z,75.10
2017-07-31T00:04:34.716Z,75.20
2017-07-31T00:04:38.960Z,75.20
2017-07-31T00:04:43.207Z,75.20
2017-07-31T00:04:48.198Z,75.20
2017-07-31T00:04:53.201Z,75.10
2017-07-31T00:04:57.465Z,75.10
2017-07-31T00:05:01.764Z,75.10
2017-07-31T00:05:06.063Z,75.10
2017-07-31T00:05:10.294Z,75.10
2017-07-31T00:05:14.553Z,75.00
2017-07-31T00:05:18.802Z,75.00
2017-07-31T00:05:23.070Z,75.00
2017-07-31T00:05:27.298Z,75.00
2017-07-31T00:05:31.626Z,74.90
2017-07-31T00:05:35.866Z,74.90
2017-07-31T00:05:40.130Z,74.90
2017-07-31T00:05:45.135Z,74.90
2017-07-31T00:05:49.388Z,74.90
2017-07-31T00:05:53.645Z,75.00
2017-07-31T00:05:58.675Z,75.00
2017-07-31T00:06:03.733Z,75.00
2017-07-31T00:06:07.985Z,75.00
2017-07-31T00:06:13.060Z,75.10
2017-07-31T00:06:17.374Z,75.10
2017-07-31T00:06:21.618Z,75.10
2017-07-31T00:06:25.888Z,75.20
2017-07-31T00:06:30.154Z,75.20
2017-07-31T00:06:34.501Z,75.20
2017-07-31T00:06:38.727Z,75.20
2017-07-31T00:06:42.998Z,75.20
2017-07-31T00:06:47.235Z,75.20
2017-07-31T00:06:51.524Z,75.10
2017-07-31T00:06:55.780Z,75.20
2017-07-31T00:07:00.013Z,75.10
2017-07-31T00:07:05.031Z,75.10
2017-07-31T00:07:10.117Z,75.20
2017-07-31T00:07:14.424Z,75.20
2017-07-31T00:07:18.654Z,75.20
2017-07-31T00:07:23.659Z,75.20
2017-07-31T00:07:27.907Z,75.10
2017-07-31T00:07:32.129Z,75.20
2017-07-31T00:07:36.389Z,75.10
2017-07-31T00:07:40.634Z,75.20
2017-07-31T00:07:44.879Z,75.20
2017-07-31T00:07:49.155Z,75.20
2017-07-31T00:07:53.404Z,75.30
2017-07-31T00:07:57.650Z,75.20
2017-07-31T00:08:01.979Z,75.30
2017-07-31T00:08:06.999Z,75.40
2017-07-31T00:08:12.061Z,75.30
2017-07-31T00:08:16.300Z,75.30
2017-07-31T00:08:20.556Z,75.30
2017-07-31T00:08:24.809Z,75.30
2017-07-31T00:08:29.823Z,75.50
2017-07-31T00:08:34.868Z,75.50
2017-07-31T00:08:39.111Z,75.50
2017-07-31T00:08:43.357Z,75.50
2017-07-31T00:08:47.590Z,75.50
2017-07-31T00:08:51.915Z,75.50
2017-07-31T00:08:56.177Z,75.50
2017-07-31T00:09:00.429Z,75.60
2017-07-31T00:09:05.471Z,75.60
2017-07-31T00:09:09.740Z,75.60
2017-07-31T00:09:13.997Z,75.50
2017-07-31T00:09:18.249Z,75.50
2017-07-31T00:09:22.627Z,75.60
2017-07-31T00:09:26.854Z,75.60
2017-07-31T00:09:31.081Z,75.60
2017-07-31T00:09:35.435Z,75.60
2017-07-31T00:09:39.717Z,75.60
2017-07-31T00:09:43.946Z,75.60
2017-07-31T00:09:48.208Z,75.60
2017-07-31T00:09:52.445Z,75.60
2017-07-31T00:09:56.696Z,75.60
2017-07-31T00:10:00.944Z,75.70
2017-07-31T00:10:05.202Z,75.70
2017-07-31T00:10:09.459Z,75.70
2017-07-31T00:10:13.698Z,75.80
2017-07-31T00:10:17.967Z,75.80
2017-07-31T00:10:22.974Z,75.80
2017-07-31T00:10:27.224Z,75.80
2017-07-31T00:10:31.502Z,75.80
2017-07-31T00:10:36.503Z,75.80
2017-07-31T00:10:41.928Z,76.50
2017-07-31T00:10:46.324Z,75.80
2017-07-31T00:10:50.567Z,75.90
2017-07-31T00:10:55.046Z,75.90
2017-07-31T00:10:59.328Z,75.90
2017-07-31T00:11:03.600Z,76.00
2017-07-31T00:11:07.870Z,76.00
2017-07-31T00:11:12.860Z,76.10
2017-07-31T00:11:17.107Z,76.10
2017-07-31T00:11:21.341Z,76.10
2017-07-31T00:11:25.611Z,76.20
2017-07-31T00:11:29.873Z,76.20
2017-07-31T00:11:34.133Z,76.20
2017-07-31T00:11:38.376Z,76.20
2017-07-31T00:11:42.627Z,76.20
2017-07-31T00:11:47.671Z,76.20
2017-07-31T00:11:52.035Z,76.20
2017-07-31T00:11:56.308Z,76.10
2017-07-31T00:12:01.308Z,76.10
2017-07-31T00:12:06.301Z,76.00
2017-07-31T00:12:10.631Z,76.00
2017-07-31T00:12:14.900Z,76.10
2017-07-31T00:12:19.157Z,76.00
2017-07-31T00:12:23.424Z,76.00
2017-07-31T00:12:27.697Z,76.00
2017-07-31T00:12:31.938Z,76.00
2017-07-31T00:12:36.194Z,75.90
2017-07-31T00:12:40.437Z,75.90
2017-07-31T00:12:44.757Z,75.90
2017-07-31T00:12:49.754Z,75.90
2017-07-31T00:12:54.768Z,75.90
2017-07-31T00:12:59.771Z,75.90
2017-07-31T00:13:04.821Z,76.20
2017-07-31T00:13:09.062Z,76.10
2017-07-31T00:13:13.320Z,76.10
2017-07-31T00:13:17.600Z,76.10
2017-07-31T00:13:22.683Z,76.20
2017-07-31T00:13:26.926Z,76.20
2017-07-31T00:13:31.963Z,76.10
2017-07-31T00:13:36.952Z,76.10
2017-07-31T00:13:41.956Z,76.10
2017-07-31T00:13:46.220Z,76.00
2017-07-31T00:13:50.457Z,76.10
2017-07-31T00:13:54.718Z,76.10
2017-07-31T00:13:58.941Z,76.00
2017-07-31T00:14:03.204Z,76.10
2017-07-31T00:14:07.465Z,76.10
2017-07-31T00:14:11.707Z,76.00
2017-07-31T00:14:16.004Z,76.10
2017-07-31T00:14:20.261Z,76.10
2017-07-31T00:14:24.489Z,76.10
2017-07-31T00:14:28.754Z,76.20
2017-07-31T00:14:33.019Z,76.30
2017-07-31T00:14:37.290Z,76.30
2017-07-31T00:14:41.585Z,76.30
2017-07-31T00:14:46.622Z,76.40
2017-07-31T00:14:50.880Z,76.40
2017-07-31T00:14:55.167Z,76.40
2017-07-31T00:14:59.429Z,76.30
2017-07-31T00:15:03.663Z,76.30
2017-07-31T00:15:07.924Z,76.30
2017-07-31T00:15:12.192Z,76.10
2017-07-31T00:15:16.471Z,76.00
2017-07-31T00:15:20.715Z,75.90
2017-07-31T00:15:24.971Z,75.80
2017-07-31T00:15:29.263Z,75.80
2017-07-31T00:15:33.514Z,75.80
2017-07-31T00:15:37.757Z,75.80
2017-07-31T00:15:42.064Z,75.80
2017-07-31T00:15:46.293Z,75.70
2017-07-31T00:15:51.286Z,75.70
2017-07-31T00:15:55.530Z,75.70
2017-07-31T00:15:59.797Z,75.60
2017-07-31T00:16:04.029Z,75.60
2017-07-31T00:16:08.281Z,75.50
2017-07-31T00:16:12.537Z,75.60
2017-07-31T00:16:16.835Z,75.50
2017-07-31T00:16:21.095Z,75.50
2017-07-31T00:16:25.325Z,75.50
2017-07-31T00:16:29.611Z,75.50
2017-07-31T00:16:34.622Z,75.60
2017-07-31T00:16:38.877Z,75.50
2017-07-31T00:16:43.135Z,75.60
2017-07-31T00:16:48.139Z,75.60
2017-07-31T00:16:52.494Z,75.40
2017-07-31T00:16:56.743Z,75.50
2017-07-31T00:17:00.965Z,75.50
2017-07-31T00:17:05.996Z,75.50
2017-07-31T00:17:10.999Z,75.50
2017-07-31T00:17:16.002Z,75.50
2017-07-31T00:17:21.013Z,75.50
2017-07-31T00:17:25.269Z,75.50
2017-07-31T00:17:29.524Z,75.40
2017-07-31T00:17:34.543Z,75.90
2017-07-31T00:17:39.579Z,76.00
2017-07-31T00:17:43.850Z,75.50
2017-07-31T00:17:48.113Z,75.50
2017-07-31T00:17:52.391Z,75.50
2017-07-31T00:17:56.763Z,75.50
2017-07-31T00:18:00.985Z,75.50
2017-07-31T00:18:05.258Z,75.50
2017-07-31T00:18:09.504Z,75.50
2017-07-31T00:18:13.767Z,75.50
2017-07-31T00:18:18.094Z,75.40
2017-07-31T00:18:22.429Z,75.40
2017-07-31T00:18:26.721Z,75.40
2017-07-31T00:18:30.977Z,75.40
2017-07-31T00:18:36.018Z,75.40
2017-07-31T00:18:40.249Z,75.30
2017-07-31T00:18:44.521Z,75.30
2017-07-31T00:18:48.817Z,75.30
2017-07-31T00:18:53.053Z,75.30
2017-07-31T00:18:57.326Z,75.30
2017-07-31T00:19:01.571Z,75.30
2017-07-31T00:19:05.814Z,75.30
2017-07-31T00:19:10.113Z,75.30
2017-07-31T00:19:14.354Z,75.30
2017-07-31T00:19:18.599Z,75.30
2017-07-31T00:19:22.869Z,75.20
2017-07-31T00:19:27.140Z,75.20
2017-07-31T00:19:31.369Z,75.20
2017-07-31T00:19:36.406Z,75.90
2017-07-31T00:19:40.709Z,75.30
2017-07-31T00:19:44.939Z,75.30
2017-07-31T00:19:49.194Z,75.40
2017-07-31T00:19:53.548Z,75.30
2017-07-31T00:19:57.810Z,75.30
2017-07-31T00:20:02.841Z,75.40
2017-07-31T00:20:07.930Z,75.30
2017-07-31T00:20:12.167Z,75.30
2017-07-31T00:20:16.453Z,75.30
2017-07-31T00:20:20.738Z,75.30
2017-07-31T00:20:25.081Z,75.30
2017-07-31T00:20:29.376Z,75.40
2017-07-31T00:20:34.403Z,75.40
2017-07-31T00:20:38.655Z,75.40
2017-07-31T00:20:42.893Z,76.00
2017-07-31T00:20:47.216Z,75.40
2017-07-31T00:20:51.449Z,75.40
2017-07-31T00:20:56.533Z,75.40
2017-07-31T00:21:00.828Z,75.40
2017-07-31T00:21:05.086Z,75.40
2017-07-31T00:21:09.338Z,75.50
2017-07-31T00:21:13.636Z,75.50
2017-07-31T00:21:17.894Z,75.50
2017-07-31T00:21:22.937Z,75.50
2017-07-31T00:21:27.178Z,75.50
2017-07-31T00:21:31.428Z,75.50
2017-07-31T00:21:35.663Z,75.60
2017-07-31T00:21:39.946Z,75.70
2017-07-31T00:21:44.188Z,75.80
2017-07-31T00:21:48.440Z,75.80
2017-07-31T00:21:52.691Z,75.80
2017-07-31T00:21:57.019Z,75.80
2017-07-31T00:22:01.296Z,75.80
2017-07-31T00:22:05.561Z,75.80
2017-07-31T00:22:09.801Z,75.90
2017-07-31T00:22:14.144Z,75.80
2017-07-31T00:22:18.431Z,75.90
2017-07-31T00:22:22.703Z,76.00
2017-07-31T00:22:26.959Z,76.00
2017-07-31T00:22:31.238Z,76.00
2017-07-31T00:22:36.233Z,76.00
2017-07-31T00:22:40.512Z,76.00
2017-07-31T00:22:44.753Z,76.00
2017-07-31T00:22:49.785Z,76.00
2017-07-31T00:22:54.066Z,76.00
2017-07-31T00:22:59.195Z,76.00
2017-07-31T00:23:03.457Z,76.00
2017-07-31T00:23:07.711Z,76.00
2017-07-31T00:23:12.009Z,76.00
2017-07-31T00:23:16.257Z,76.00
2017-07-31T00:23:20.553Z,75.90
2017-07-31T00:23:24.788Z,75.90
2017-07-31T00:23:29.826Z,76.00
2017-07-31T00:23:34.175Z,75.80
2017-07-31T00:23:38.428Z,75.80
2017-07-31T00:23:42.686Z,75.80
2017-07-31T00:23:47.027Z,75.80
2017-07-31T00:23:51.441Z,75.90
2017-07-31T00:23:55.695Z,75.90
2017-07-31T00:23:59.917Z,75.90
2017-07-31T00:24:04.197Z,75.90
2017-07-31T00:24:08.438Z,75.90
2017-07-31T00:24:12.678Z,75.90
2017-07-31T00:24:16.945Z,75.90
2017-07-31T00:24:21.185Z,75.90
2017-07-31T00:24:25.417Z,75.90
2017-07-31T00:24:29.664Z,75.90
2017-07-31T00:24:33.919Z,76.00
2017-07-31T00:24:39.276Z,76.00
2017-07-31T00:24:43.554Z,76.00
2017-07-31T00:24:48.545Z,76.00
2017-07-31T00:24:52.781Z,76.00
2017-07-31T00:24:57.108Z,76.00
2017-07-31T00:25:01.420Z,76.00
2017-07-31T00:25:05.657Z,76.70
2017-07-31T00:25:10.718Z,76.30
2017-07-31T00:25:14.956Z,75.80
2017-07-31T00:25:19.185Z,76.30
2017-07-31T00:25:24.252Z,76.30
2017-07-31T00:25:28.496Z,76.30
2017-07-31T00:25:33.509Z,77.00
2017-07-31T00:25:37.789Z,76.40
2017-07-31T00:25:42.072Z,76.40
2017-07-31T00:25:46.340Z,76.50
2017-07-31T00:25:51.330Z,76.50
2017-07-31T00:25:56.196Z,76.50
2017-07-31T00:26:00.444Z,76.60
2017-07-31T00:26:04.901Z,76.60
2017-07-31T00:26:09.616Z,76.60
2017-07-31T00:26:13.988Z,76.60
2017-07-31T00:26:18.218Z,76.60
2017-07-31T00:26:22.830Z,76.60
2017-07-31T00:26:27.067Z,76.60
2017-07-31T00:26:31.358Z,76.60
2017-07-31T00:26:35.614Z,76.50
2017-07-31T00:26:39.883Z,76.50
2017-07-31T00:26:44.135Z,76.60
2017-07-31T00:26:48.377Z,76.60
2017-07-31T00:26:53.462Z,76.70
2017-07-31T00:26:57.661Z,76.70
2017-07-31T00:27:02.707Z,76.70
2017-07-31T00:27:07.744Z,76.20
2017-07-31T00:27:12.763Z,76.60
2017-07-31T00:27:17.768Z,76.70
2017-07-31T00:27:22.060Z,76.70
2017-07-31T00:27:26.282Z,76.80
2017-07-31T00:27:30.534Z,76.80
2017-07-31T00:27:34.803Z,76.80
2017-07-31T00:27:39.045Z,76.80
2017-07-31T00:27:43.289Z,76.80
2017-07-31T00:27:47.526Z,76.90
2017-07-31T00:27:51.884Z,76.70
2017-07-31T00:27:56.125Z,76.80
2017-07-31T00:28:00.405Z,76.80
2017-07-31T00:28:04.672Z,76.80
2017-07-31T00:28:09.689Z,76.90
2017-07-31T00:28:14.707Z,76.90
2017-07-31T00:28:19.020Z,76.90
2017-07-31T00:28:24.059Z,76.90
2017-07-31T00:28:28.313Z,76.90
2017-07-31T00:28:32.625Z,76.90
2017-07-31T00:28:37.685Z,77.50
2017-07-31T00:28:41.985Z,77.00
2017-07-31T00:28:46.263Z,76.90
2017-07-31T00:28:50.516Z,77.00
2017-07-31T00:28:54.749Z,77.00
2017-07-31T00:28:59.754Z,77.20
2017-07-31T00:29:04.013Z,77.20
2017-07-31T00:29:08.249Z,77.20
2017-07-31T00:29:13.276Z,77.80
2017-07-31T00:29:17.600Z,77.30
2017-07-31T00:29:21.844Z,77.30
2017-07-31T00:29:26.073Z,77.30
2017-07-31T00:29:30.354Z,77.30
2017-07-31T00:29:34.596Z,77.30
2017-07-31T00:29:39.685Z,77.30
2017-07-31T00:29:43.930Z,77.30
2017-07-31T00:29:48.925Z,77.30
2017-07-31T00:29:53.945Z,77.30
2017-07-31T00:29:58.953Z,77.40
2017-07-31T00:30:03.229Z,77.30
2017-07-31T00:30:07.492Z,76.70
2017-07-31T00:30:11.800Z,77.30
2017-07-31T00:30:16.064Z,77.30
2017-07-31T00:30:20.287Z,77.30
2017-07-31T00:30:24.549Z,77.30
2017-07-31T00:30:28.785Z,77.30
2017-07-31T00:30:33.083Z,77.30
2017-07-31T00:30:37.357Z,77.30
2017-07-31T00:30:42.365Z,77.40
2017-07-31T00:30:46.595Z,77.50
2017-07-31T00:30:50.853Z,77.40
2017-07-31T00:30:55.107Z,77.40
2017-07-31T00:30:59.394Z,77.40
2017-07-31T00:31:03.731Z,77.40
2017-07-31T00:31:08.038Z,77.40
2017-07-31T00:31:12.295Z,77.40
2017-07-31T00:31:17.289Z,77.50
2017-07-31T00:31:21.544Z,77.50
2017-07-31T00:31:25.783Z,77.40
2017-07-31T00:31:30.021Z,77.50
2017-07-31T00:31:34.284Z,77.50
2017-07-31T00:31:38.527Z,77.40
2017-07-31T00:31:42.787Z,77.40
2017-07-31T00:31:47.047Z,77.40
2017-07-31T00:31:51.282Z,77.40
2017-07-31T00:31:55.554Z,77.40
2017-07-31T00:31:59.888Z,77.50
2017-07-31T00:32:04.115Z,77.40
2017-07-31T00:32:09.156Z,77.40
2017-07-31T00:32:13.416Z,77.50
2017-07-31T00:32:17.676Z,77.40
2017-07-31T00:32:21.930Z,77.40
2017-07-31T00:32:26.207Z,77.40
2017-07-31T00:32:30.449Z,77.40
2017-07-31T00:32:34.727Z,77.40
2017-07-31T00:32:39.758Z,77.30
2017-07-31T00:32:44.772Z,77.30
2017-07-31T00:32:49.775Z,77.20
2017-07-31T00:32:54.804Z,77.10
2017-07-31T00:32:59.835Z,77.10
2017-07-31T00:33:04.100Z,77.10
2017-07-31T00:33:08.337Z,77.00
2017-07-31T00:33:12.605Z,77.00
2017-07-31T00:33:16.840Z,77.00
2017-07-31T00:33:21.165Z,77.00
2017-07-31T00:33:25.431Z,77.00
2017-07-31T00:33:29.692Z,77.00
2017-07-31T00:33:33.929Z,77.00
2017-07-31T00:33:38.947Z,77.10
2017-07-31T00:33:43.945Z,77.10
2017-07-31T00:33:49.095Z,76.80
2017-07-31T00:33:53.353Z,77.00
2017-07-31T00:33:57.632Z,77.00
2017-07-31T00:34:01.859Z,77.00
2017-07-31T00:34:06.099Z,76.80
2017-07-31T00:34:10.334Z,76.70
2017-07-31T00:34:14.574Z,76.60
2017-07-31T00:34:19.637Z,76.50
2017-07-31T00:34:23.936Z,76.50
2017-07-31T00:34:28.191Z,76.50
2017-07-31T00:34:33.221Z,76.50
2017-07-31T00:34:38.229Z,76.50
2017-07-31T00:34:43.267Z,76.50
2017-07-31T00:34:47.497Z,77.20
2017-07-31T00:34:51.741Z,76.50
2017-07-31T00:34:56.743Z,76.70
2017-07-31T00:35:01.069Z,76.60
2017-07-31T00:35:06.093Z,76.70
2017-07-31T00:35:10.360Z,76.70
2017-07-31T00:35:14.599Z,76.70
2017-07-31T00:35:18.891Z,76.70
2017-07-31T00:35:23.181Z,76.80
2017-07-31T00:35:27.435Z,76.80
2017-07-31T00:35:31.671Z,76.70
2017-07-31T00:35:35.897Z,76.70
2017-07-31T00:35:40.901Z,76.70
2017-07-31T00:35:45.141Z,76.60
2017-07-31T00:35:49.387Z,76.70
2017-07-31T00:35:53.658Z,76.70
2017-07-31T00:35:57.956Z,76.70
2017-07-31T00:36:02.214Z,76.70
2017-07-31T00:36:07.233Z,76.70
2017-07-31T00:36:12.257Z,76.80
2017-07-31T00:36:16.512Z,76.70
2017-07-31T00:36:20.774Z,76.80
2017-07-31T00:36:25.091Z,76.70
2017-07-31T00:36:29.356Z,76.70
2017-07-31T00:36:34.415Z,76.70
2017-07-31T00:36:38.666Z,76.80
2017-07-31T00:36:43.706Z,76.70
2017-07-31T00:36:47.951Z,76.70
2017-07-31T00:36:52.189Z,76.70
2017-07-31T00:36:57.226Z,76.70
2017-07-31T00:37:01.506Z,76.70
2017-07-31T00:37:05.729Z,76.70
2017-07-31T00:37:09.993Z,76.70
2017-07-31T00:37:15.082Z,76.90
2017-07-31T00:37:19.328Z,76.60
2017-07-31T00:37:24.325Z,76.60
2017-07-31T00:37:28.572Z,76.50
2017-07-31T00:37:32.875Z,76.50
2017-07-31T00:37:37.144Z,76.50
2017-07-31T00:37:42.326Z,77.20
2017-07-31T00:37:47.265Z,76.50
2017-07-31T00:37:52.289Z,76.80
2017-07-31T00:37:56.544Z,76.60
2017-07-31T00:38:00.818Z,76.50
2017-07-31T00:38:05.043Z,76.50
2017-07-31T00:38:09.300Z,76.60
2017-07-31T00:38:14.321Z,76.70
2017-07-31T00:38:18.585Z,76.60
2017-07-31T00:38:22.844Z,76.70
2017-07-31T00:38:27.069Z,76.70
2017-07-31T00:38:31.302Z,76.70
2017-07-31T00:38:35.571Z,76.70
2017-07-31T00:38:39.818Z,76.70
2017-07-31T00:38:44.069Z,76.80
2017-07-31T00:38:48.326Z,76.80
2017-07-31T00:38:53.345Z,76.90
2017-07-31T00:38:58.414Z,76.90
2017-07-31T00:39:02.689Z,76.90
2017-07-31T00:39:07.014Z,76.90
2017-07-31T00:39:11.250Z,76.90
2017-07-31T00:39:15.492Z,76.90
2017-07-31T00:39:19.733Z,76.90
2017-07-31T00:39:24.027Z,77.00
2017-07-31T00:39:28.322Z,76.90
2017-07-31T00:39:32.585Z,77.00
2017-07-31T00:39:36.834Z,77.00
2017-07-31T00:39:41.072Z,76.90
2017-07-31T00:39:46.095Z,76.90
2017-07-31T00:39:50.382Z,76.90
2017-07-31T00:39:54.642Z,76.90
2017-07-31T00:39:58.894Z,76.90
2017-07-31T00:40:03.195Z,76.90
2017-07-31T00:40:07.448Z,77.00
2017-07-31T00:40:11.786Z,77.00
2017-07-31T00:40:16.815Z,77.00
2017-07-31T00:40:21.076Z,77.00
2017-07-31T00:40:25.335Z,77.00
2017-07-31T00:40:29.614Z,77.00
2017-07-31T00:40:33.861Z,76.90
2017-07-31T00:40:38.111Z,77.00
2017-07-31T00:40:43.168Z,77.00
2017-07-31T00:40:47.396Z,77.00
2017-07-31T00:40:51.729Z,77.00
2017-07-31T00:40:56.735Z,77.10
2017-07-31T00:41:01.782Z,77.10
2017-07-31T00:41:06.027Z,77.10
2017-07-31T00:41:10.293Z,77.10
2017-07-31T00:41:14.545Z,77.10
2017-07-31T00:41:18.785Z,77.10
2017-07-31T00:41:23.023Z,77.20
2017-07-31T00:41:27.293Z,77.20
2017-07-31T00:41:31.565Z,77.20
2017-07-31T00:41:36.583Z,77.10
2017-07-31T00:41:41.644Z,77.10
2017-07-31T00:41:45.889Z,77.10
2017-07-31T00:41:50.135Z,77.10
2017-07-31T00:41:54.407Z,77.10
2017-07-31T00:41:59.412Z,77.10
2017-07-31T00:42:03.642Z,77.10
2017-07-31T00:42:07.949Z,77.10
2017-07-31T00:42:12.930Z,77.20
2017-07-31T00:42:17.229Z,77.20
2017-07-31T00:42:22.352Z,77.60
2017-07-31T00:42:26.621Z,77.20
2017-07-31T00:42:30.865Z,77.30
2017-07-31T00:42:35.113Z,77.30
2017-07-31T00:42:39.371Z,77.30
2017-07-31T00:42:43.692Z,77.30
2017-07-31T00:42:47.950Z,77.30
2017-07-31T00:42:52.249Z,77.30
2017-07-31T00:42:56.533Z,77.30
2017-07-31T00:43:00.799Z,77.30
2017-07-31T00:43:05.050Z,77.30
2017-07-31T00:43:09.285Z,77.30
2017-07-31T00:43:13.536Z,77.30
2017-07-31T00:43:17.792Z,77.30
2017-07-31T00:43:22.096Z,77.30
2017-07-31T00:43:26.377Z,77.30
2017-07-31T00:43:30.675Z,77.30
2017-07-31T00:43:35.702Z,77.30
2017-07-31T00:43:39.980Z,77.30
2017-07-31T00:43:44.991Z,77.40
2017-07-31T00:43:49.267Z,77.40
2017-07-31T00:43:54.283Z,77.40
2017-07-31T00:43:58.515Z,77.40
2017-07-31T00:44:03.506Z,77.40
2017-07-31T00:44:07.753Z,77.40
2017-07-31T00:44:12.006Z,77.50
2017-07-31T00:44:16.230Z,77.50
2017-07-31T00:44:21.258Z,77.60
2017-07-31T00:44:26.309Z,77.60
2017-07-31T00:44:30.579Z,77.60
2017-07-31T00:44:35.594Z,77.60
2017-07-31T00:44:40.621Z,77.60
2017-07-31T00:44:44.893Z,77.60
2017-07-31T00:44:49.175Z,77.60
2017-07-31T00:44:53.413Z,77.60
2017-07-31T00:44:58.437Z,77.60
2017-07-31T00:45:02.740Z,77.60
2017-07-31T00:45:06.993Z,77.70
2017-07-31T00:45:11.272Z,77.60
2017-07-31T00:45:16.308Z,77.70
2017-07-31T00:45:20.609Z,77.70
2017-07-31T00:45:24.880Z,77.70
2017-07-31T00:45:29.159Z,77.70
2017-07-31T00:45:34.153Z,77.90
2017-07-31T00:45:38.401Z,77.70
2017-07-31T00:45:42.634Z,77.90
2017-07-31T00:45:46.874Z,78.00
2017-07-31T00:45:51.123Z,78.30
2017-07-31T00:45:55.390Z,78.50
2017-07-31T00:45:59.642Z,77.90
2017-07-31T00:46:03.888Z,77.90
2017-07-31T00:46:08.122Z,78.00
2017-07-31T00:46:12.498Z,78.00
2017-07-31T00:46:16.729Z,78.00
2017-07-31T00:46:20.976Z,78.00
2017-07-31T00:46:25.243Z,78.10
2017-07-31T00:46:29.489Z,78.10
2017-07-31T00:46:33.759Z,78.10
2017-07-31T00:46:38.028Z,78.10
2017-07-31T00:46:42.337Z,78.10
2017-07-31T00:46:46.565Z,78.20
2017-07-31T00:46:51.620Z,78.60
2017-07-31T00:46:55.870Z,78.20
2017-07-31T00:47:00.114Z,78.20
2017-07-31T00:47:04.358Z,78.30
2017-07-31T00:47:08.601Z,78.30
2017-07-31T00:47:12.964Z,78.20
2017-07-31T00:47:17.213Z,78.30
2017-07-31T00:47:21.475Z,78.30
2017-07-31T00:47:25.756Z,78.30
2017-07-31T00:47:30.015Z,78.30
2017-07-31T00:47:34.254Z,78.30
2017-07-31T00:47:38.531Z,78.40
2017-07-31T00:47:42.787Z,78.40
2017-07-31T00:47:47.077Z,78.50
2017-07-31T00:47:51.570Z,78.40
2017-07-31T00:47:55.877Z,78.40
2017-07-31T00:48:00.103Z,78.40
2017-07-31T00:48:04.382Z,78.50
2017-07-31T00:48:08.656Z,78.50
2017-07-31T00:48:12.899Z,78.60
2017-07-31T00:48:17.147Z,78.60
2017-07-31T00:48:21.392Z,78.70
2017-07-31T00:48:25.628Z,78.70
2017-07-31T00:48:29.894Z,78.70
2017-07-31T00:48:34.152Z,78.70
2017-07-31T00:48:38.381Z,78.70
2017-07-31T00:48:42.647Z,78.80
2017-07-31T00:48:46.920Z,78.90
2017-07-31T00:48:51.913Z,79.00
2017-07-31T00:48:56.963Z,79.00
2017-07-31T00:49:01.313Z,79.00
2017-07-31T00:49:05.557Z,79.00
2017-07-31T00:49:09.806Z,79.10
2017-07-31T00:49:14.058Z,79.10
2017-07-31T00:49:19.053Z,79.20
2017-07-31T00:49:24.058Z,79.80
2017-07-31T00:49:28.326Z,79.20
2017-07-31T00:49:32.666Z,79.30
2017-07-31T00:49:36.889Z,79.90
2017-07-31T00:49:41.925Z,79.30
2017-07-31T00:49:46.897Z,79.30
2017-07-31T00:49:51.177Z,79.30
2017-07-31T00:49:55.409Z,78.90
2017-07-31T00:49:59.691Z,79.30
2017-07-31T00:50:03.927Z,79.40
2017-07-31T00:50:08.925Z,79.40
2017-07-31T00:50:13.181Z,79.40
2017-07-31T00:50:17.424Z,79.40
2017-07-31T00:50:21.685Z,79.40
2017-07-31T00:50:25.906Z,79.50
2017-07-31T00:50:30.957Z,79.60
2017-07-31T00:50:35.962Z,79.40
2017-07-31T00:50:40.217Z,79.50
2017-07-31T00:50:44.483Z,79.50
2017-07-31T00:50:49.492Z,79.70
2017-07-31T00:50:54.578Z,80.30
2017-07-31T00:50:58.836Z,79.70
2017-07-31T00:51:03.117Z,79.80
2017-07-31T00:51:08.144Z,80.30
2017-07-31T00:51:13.201Z,79.70
2017-07-31T00:51:17.455Z,79.70
2017-07-31T00:51:22.471Z,79.80
2017-07-31T00:51:27.474Z,79.70
2017-07-31T00:51:32.478Z,79.60
2017-07-31T00:51:36.764Z,79.80
2017-07-31T00:51:41.057Z,79.80
2017-07-31T00:51:45.311Z,79.80
2017-07-31T00:51:50.318Z,79.90
2017-07-31T00:51:55.350Z,79.90
2017-07-31T00:52:00.359Z,79.90
2017-07-31T00:52:04.617Z,79.90
2017-07-31T00:52:08.876Z,79.90
2017-07-31T00:52:13.132Z,79.90
2017-07-31T00:52:17.401Z,79.90
2017-07-31T00:52:21.626Z,79.90
2017-07-31T00:52:25.870Z,79.90
2017-07-31T00:52:30.131Z,79.90
2017-07-31T00:52:34.428Z,80.00
2017-07-31T00:52:38.725Z,80.00
2017-07-31T00:52:42.993Z,80.00
2017-07-31T00:52:47.255Z,80.00
2017-07-31T00:52:51.539Z,80.00
2017-07-31T00:52:55.790Z,80.10
2017-07-31T00:53:00.056Z,80.10
2017-07-31T00:53:05.072Z,79.70
2017-07-31T00:53:09.323Z,80.20
2017-07-31T00:53:13.565Z,80.20
2017-07-31T00:53:17.891Z,80.20
2017-07-31T00:53:22.149Z,80.20
2017-07-31T00:53:26.399Z,80.30
2017-07-31T00:53:30.631Z,80.30
2017-07-31T00:53:34.877Z,80.40
2017-07-31T00:53:39.146Z,80.40
2017-07-31T00:53:43.456Z,80.40
2017-07-31T00:53:47.698Z,80.40
2017-07-31T00:53:52.075Z,80.40
2017-07-31T00:53:57.082Z,80.50
2017-07-31T00:54:01.326Z,80.50
2017-07-31T00:54:05.578Z,80.50
2017-07-31T00:54:10.295Z,80.50
2017-07-31T00:54:14.541Z,80.60
2017-07-31T00:54:18.800Z,80.60
2017-07-31T00:54:23.149Z,80.70
2017-07-31T00:54:27.446Z,80.60
2017-07-31T00:54:31.711Z,80.60
2017-07-31T00:54:35.967Z,80.70
2017-07-31T00:54:40.236Z,80.70
2017-07-31T00:54:45.214Z,80.80
2017-07-31T00:54:49.454Z,80.80
2017-07-31T00:54:53.729Z,80.80
2017-07-31T00:54:58.794Z,80.70
2017-07-31T00:55:03.061Z,80.90
2017-07-31T00:55:08.087Z,81.00
2017-07-31T00:55:12.350Z,81.00
2017-07-31T00:55:16.586Z,81.00
2017-07-31T00:55:20.843Z,81.00
2017-07-31T00:55:25.074Z,81.10
2017-07-31T00:55:30.089Z,81.30
2017-07-31T00:55:34.326Z,81.20
2017-07-31T00:55:38.560Z,81.20
2017-07-31T00:55:42.832Z,81.20
2017-07-31T00:55:47.087Z,81.20
2017-07-31T00:55:52.122Z,81.10
2017-07-31T00:55:56.355Z,81.30
2017-07-31T00:56:00.645Z,81.40
2017-07-31T00:56:04.907Z,81.40
2017-07-31T00:56:09.264Z,81.40
2017-07-31T00:56:13.607Z,81.40
2017-07-31T00:56:17.869Z,81.40
2017-07-31T00:56:22.134Z,81.40
2017-07-31T00:56:26.411Z,81.50
2017-07-31T00:56:31.482Z,81.50
2017-07-31T00:56:35.775Z,81.50
2017-07-31T00:56:40.012Z,81.50
2017-07-31T00:56:44.270Z,81.50
2017-07-31T00:56:48.516Z,81.60
2017-07-31T00:56:52.785Z,81.70
2017-07-31T00:56:57.040Z,81.80
2017-07-31T00:57:02.051Z,81.80